KPEQ

Pecos Municipal Airport

Pecos, Texas, USA
METAR KPEQ 210515Z AUTO 07004KT 10SM CLR 25/15 A3010 RMK AO2 T02520145
Observed Flight Rules
Aug-21 @ 05:15 UTC (9 hours ago) Visual Flight Rules
Wind Visibility Clouds
70° at 4 knots 10 miles
  • Clear skies
Temperatures Readings
Current 25°C / 77°F
Dewpoint 15°C / 59°F
Humidity 54%
Altimeter 30.1" Hg
Pressure 1019 hPa
Elevation 797
METAR KPEQ 210515Z AUTO 07004KT 10SM CLR 25/15 A3010 RMK AO2 T02520145
Observed Flight Rules
Aug-21 @ 05:15 UTC
(9 hours ago)
VFR
Wind Visibility
70° at 4 knots 10 miles
Clouds
  • Clear skies
Temperature Dewpoint
25°C / 77°F 15°C / 59°F
Humidity Altimeter Pressure
54% 30.1" Hg 1019 hPa